createdAt,value
2019-04-28T00:02:26.624Z,99.90
2019-04-28T00:04:55.355Z,99.90
2019-04-28T00:07:24.149Z,99.90
2019-04-28T00:09:52.657Z,99.90
2019-04-28T00:12:22.913Z,99.90
2019-04-28T00:14:52.417Z,99.90
2019-04-28T00:17:21.250Z,99.90
2019-04-28T00:19:51.440Z,99.90
2019-04-28T00:22:21.717Z,99.90
2019-04-28T00:24:51.796Z,99.90
2019-04-28T00:27:21.649Z,99.90
2019-04-28T00:29:51.864Z,99.90
2019-04-28T00:32:21.044Z,99.90
2019-04-28T00:34:51.256Z,99.90
2019-04-28T00:37:24.807Z,99.90
2019-04-28T00:39:53.282Z,99.90
2019-04-28T00:42:22.749Z,99.90
2019-04-28T00:44:51.543Z,99.90
2019-04-28T00:47:21.311Z,99.90
2019-04-28T00:49:51.946Z,99.90
2019-04-28T00:52:22.194Z,99.90
2019-04-28T00:54:52.562Z,99.90
2019-04-28T00:57:22.612Z,99.90
2019-04-28T00:59:57.645Z,99.90
2019-04-28T01:02:23.731Z,99.90
2019-04-28T01:04:52.150Z,99.90
2019-04-28T01:07:21.247Z,99.90
2019-04-28T01:09:51.675Z,99.90
2019-04-28T01:12:21.258Z,99.90
2019-04-28T01:14:54.521Z,99.90
2019-04-28T01:17:39.755Z,99.90
2019-04-28T01:20:29.612Z,99.90
2019-04-28T01:22:58.192Z,99.90
2019-04-28T01:25:26.617Z,99.90
2019-04-28T01:27:56.059Z,99.90
2019-04-28T01:30:43.253Z,99.90
2019-04-28T01:36:03.935Z,99.90
2019-04-28T01:38:33.279Z,99.90
2019-04-28T01:41:01.719Z,99.90
2019-04-28T01:43:31.241Z,99.90
2019-04-28T01:46:00.255Z,99.90
2019-04-28T01:48:29.627Z,99.90
2019-04-28T01:50:59.845Z,99.90
2019-04-28T01:53:28.355Z,99.90
2019-04-28T01:55:59.462Z,99.90
2019-04-28T01:58:29.677Z,99.90
2019-04-28T02:00:59.591Z,99.90
2019-04-28T02:03:30.590Z,99.90
2019-04-28T02:06:00.194Z,99.90
2019-04-28T02:08:30.236Z,99.90
2019-04-28T02:11:00.156Z,99.90
2019-04-28T02:13:29.873Z,99.90
2019-04-28T02:16:00.044Z,99.90
2019-04-28T02:18:29.893Z,99.90
2019-04-28T02:21:06.451Z,99.90
2019-04-28T02:23:36.527Z,99.90
2019-04-28T02:26:04.965Z,99.90
2019-04-28T02:28:33.468Z,99.90
2019-04-28T02:31:02.425Z,99.90
2019-04-28T02:33:31.320Z,99.90
2019-04-28T02:36:01.409Z,99.90
2019-04-28T02:38:33.878Z,99.90
2019-04-28T02:41:00.579Z,99.90
2019-04-28T02:43:30.765Z,99.90
2019-04-28T02:46:00.693Z,99.90
2019-04-28T02:48:30.997Z,99.90
2019-04-28T02:51:06.852Z,99.90
2019-04-28T02:53:37.282Z,99.90
2019-04-28T02:56:06.126Z,99.90
2019-04-28T02:58:34.567Z,99.90
2019-04-28T03:01:15.295Z,99.90
2019-04-28T03:03:34.593Z,99.90
2019-04-28T03:06:03.017Z,99.90
2019-04-28T03:08:33.676Z,99.90
2019-04-28T03:11:02.372Z,99.90
2019-04-28T03:13:31.855Z,99.90
2019-04-28T03:16:01.482Z,99.90
2019-04-28T03:18:31.625Z,99.90
2019-04-28T03:21:01.684Z,99.90
2019-04-28T03:23:31.203Z,99.90
2019-04-28T03:26:07.427Z,99.90
2019-04-28T03:28:43.536Z,99.90
2019-04-28T03:31:46.936Z,99.90
2019-04-28T03:33:49.198Z,99.90
2019-04-28T03:36:23.121Z,99.90
2019-04-28T03:38:50.398Z,99.90
2019-04-28T03:41:21.116Z,99.90
2019-04-28T03:43:51.452Z,99.90
2019-04-28T03:46:30.229Z,99.90
2019-04-28T03:49:33.975Z,99.90
2019-04-28T03:52:03.440Z,99.90
2019-04-28T03:54:31.855Z,99.90
2019-04-28T03:57:02.300Z,99.90
2019-04-28T03:59:32.663Z,99.90
2019-04-28T04:02:03.393Z,99.90
2019-04-28T04:04:32.392Z,99.90
2019-04-28T04:07:02.368Z,99.90
2019-04-28T04:09:33.717Z,99.90
2019-04-28T04:12:06.525Z,99.90
2019-04-28T04:14:37.919Z,99.90
2019-04-28T04:17:08.000Z,99.90
2019-04-28T04:19:37.323Z,99.90
2019-04-28T04:22:06.084Z,99.90
2019-04-28T04:24:34.512Z,99.90
2019-04-28T04:27:03.245Z,99.90
2019-04-28T04:29:32.044Z,99.90
2019-04-28T04:32:13.638Z,99.90
2019-04-28T04:34:31.181Z,99.90
2019-04-28T04:37:00.696Z,99.90
2019-04-28T04:39:30.683Z,99.90
2019-04-28T04:42:00.630Z,99.90
2019-04-28T04:44:31.023Z,99.90
2019-04-28T04:47:01.013Z,99.90
2019-04-28T04:49:31.539Z,99.90
2019-04-28T04:52:00.561Z,99.90
2019-04-28T04:54:32.854Z,99.90
2019-04-28T04:57:01.371Z,99.90
2019-04-28T04:59:32.796Z,99.90
2019-04-28T05:02:26.687Z,99.90
2019-04-28T05:04:47.259Z,99.90
2019-04-28T05:07:15.952Z,99.90
2019-04-28T05:12:09.682Z,99.90
2019-04-28T05:14:39.551Z,99.90
2019-04-28T05:17:10.381Z,99.90
2019-04-28T05:19:40.243Z,99.90
2019-04-28T05:22:10.448Z,99.90
2019-04-28T05:24:46.359Z,99.90
2019-04-28T05:27:13.343Z,99.90
2019-04-28T05:29:41.765Z,99.90
2019-04-28T05:32:10.764Z,99.90
2019-04-28T05:34:46.404Z,99.90
2019-04-28T05:37:10.795Z,99.90
2019-04-28T05:39:44.279Z,99.90
2019-04-28T05:42:13.883Z,99.90
2019-04-28T05:44:43.246Z,99.90
2019-04-28T05:47:11.696Z,99.90
2019-04-28T05:49:55.220Z,99.90
2019-04-28T05:52:40.431Z,99.90
2019-04-28T05:55:13.623Z,99.90
2019-04-28T05:57:46.651Z,99.90
2019-04-28T06:00:29.800Z,99.90
2019-04-28T06:03:00.664Z,99.90
2019-04-28T06:05:31.820Z,99.90
2019-04-28T06:08:09.897Z,99.90
2019-04-28T06:10:39.856Z,99.90
2019-04-28T06:13:09.983Z,99.90
2019-04-28T06:15:39.924Z,99.90
2019-04-28T06:18:10.456Z,99.90
2019-04-28T06:20:40.690Z,99.90
2019-04-28T06:23:09.574Z,99.90
2019-04-28T06:25:38.370Z,99.90
2019-04-28T06:28:06.795Z,99.90
2019-04-28T06:30:35.656Z,99.90
2019-04-28T06:33:08.123Z,99.90
2019-04-28T06:35:35.196Z,99.90
2019-04-28T06:38:05.540Z,99.90
2019-04-28T06:40:35.314Z,99.90
2019-04-28T06:43:04.004Z,99.90
2019-04-28T06:45:33.381Z,99.90
2019-04-28T06:48:02.160Z,99.90
2019-04-28T06:50:33.611Z,99.90
2019-04-28T06:53:03.055Z,99.90
2019-04-28T06:55:32.063Z,99.90
2019-04-28T06:58:00.487Z,99.90
2019-04-28T07:00:28.931Z,99.90
2019-04-28T07:02:57.625Z,99.90
2019-04-28T07:05:26.058Z,99.90
2019-04-28T07:07:54.487Z,99.90
2019-04-28T07:10:23.835Z,99.90
2019-04-28T07:12:52.272Z,99.90
2019-04-28T07:15:20.967Z,99.90
2019-04-28T07:17:49.691Z,99.90
2019-04-28T07:20:21.007Z,99.90
2019-04-28T07:22:49.460Z,99.90
2019-04-28T07:25:18.187Z,99.90
2019-04-28T07:27:46.615Z,99.90
2019-04-28T07:30:17.063Z,99.90
2019-04-28T07:32:47.470Z,99.90
2019-04-28T07:35:16.939Z,99.90
2019-04-28T07:37:45.359Z,99.90
2019-04-28T07:40:14.035Z,99.90
2019-04-28T07:42:42.800Z,99.90
2019-04-28T07:45:12.427Z,99.90
2019-04-28T07:47:40.860Z,99.90
2019-04-28T07:50:09.793Z,99.90
2019-04-28T07:52:43.001Z,99.90
2019-04-28T07:55:11.718Z,99.90
2019-04-28T07:57:41.488Z,99.90
2019-04-28T08:00:11.615Z,99.90
2019-04-28T08:02:40.041Z,99.90
2019-04-28T08:05:08.724Z,99.90
2019-04-28T08:07:38.140Z,99.90
2019-04-28T08:10:06.999Z,99.90
2019-04-28T08:12:35.441Z,99.90
2019-04-28T08:15:04.407Z,99.90
2019-04-28T08:17:33.241Z,99.40
2019-04-28T08:20:05.477Z,99.90
2019-04-28T08:22:33.101Z,99.90
2019-04-28T08:25:02.456Z,99.90
2019-04-28T08:27:31.129Z,99.40
2019-04-28T08:29:59.890Z,99.70
2019-04-28T08:32:37.111Z,98.80
2019-04-28T08:35:06.595Z,99.90
2019-04-28T08:37:35.263Z,98.10
2019-04-28T08:40:05.223Z,95.90
2019-04-28T08:42:33.981Z,95.80
2019-04-28T08:45:04.090Z,95.30
2019-04-28T08:47:32.892Z,94.50
2019-04-28T08:50:01.592Z,94.10
2019-04-28T08:52:30.019Z,95.80
2019-04-28T08:54:58.467Z,94.40
2019-04-28T08:57:27.072Z,93.10
2019-04-28T08:59:55.496Z,93.40
2019-04-28T09:02:24.524Z,95.20
2019-04-28T09:04:53.228Z,91.00
2019-04-28T09:07:21.668Z,89.70
2019-04-28T09:09:50.393Z,89.60
2019-04-28T09:12:18.830Z,86.20
2019-04-28T09:14:47.564Z,87.70
2019-04-28T09:17:17.279Z,84.50
2019-04-28T09:19:45.703Z,87.00
2019-04-28T09:22:14.151Z,79.90
2019-04-28T09:24:42.935Z,80.80
2019-04-28T09:27:11.379Z,79.70
2019-04-28T09:29:39.811Z,81.70
2019-04-28T09:32:08.606Z,82.50
2019-04-28T09:34:37.287Z,83.70
2019-04-28T09:37:05.719Z,81.80
2019-04-28T09:39:41.459Z,79.20
2019-04-28T09:42:24.036Z,82.10
2019-04-28T09:44:52.458Z,80.90
2019-04-28T09:47:21.203Z,80.20
2019-04-28T09:49:49.894Z,76.10
2019-04-28T09:52:18.328Z,74.90
2019-04-28T09:54:46.752Z,74.50
2019-04-28T09:57:15.185Z,70.10
2019-04-28T09:59:43.602Z,67.30
2019-04-28T10:02:12.031Z,70.20
2019-04-28T10:04:41.844Z,71.90
2019-04-28T10:07:10.667Z,73.10
2019-04-28T10:09:39.412Z,71.90
2019-04-28T10:12:08.207Z,70.20
2019-04-28T10:14:36.626Z,66.30
2019-04-28T10:17:05.312Z,66.30
2019-04-28T10:19:33.752Z,68.60
2019-04-28T10:22:02.423Z,70.70
2019-04-28T10:24:31.147Z,69.00
2019-04-28T10:26:59.580Z,67.90
2019-04-28T10:29:32.873Z,67.10
2019-04-28T10:32:00.484Z,63.30
2019-04-28T10:34:29.200Z,64.10
2019-04-28T10:36:57.683Z,61.90
2019-04-28T10:39:31.059Z,62.50
2019-04-28T10:41:59.567Z,63.60
2019-04-28T10:44:30.696Z,64.90
2019-04-28T10:47:01.835Z,65.00
2019-04-28T10:49:31.456Z,65.40
2019-04-28T10:51:59.922Z,66.00
2019-04-28T10:54:28.395Z,66.90
2019-04-28T10:56:56.836Z,67.10
2019-04-28T10:59:26.283Z,67.80
2019-04-28T11:01:54.723Z,69.40
2019-04-28T11:04:41.196Z,68.50
2019-04-28T11:07:11.623Z,65.00
2019-04-28T11:09:47.679Z,65.10
2019-04-28T11:12:30.600Z,63.10
2019-04-28T11:14:59.026Z,62.00
2019-04-28T11:17:46.701Z,63.50
2019-04-28T11:20:15.466Z,64.70
2019-04-28T11:22:45.108Z,65.20
2019-04-28T11:25:14.079Z,64.80
2019-04-28T11:27:42.680Z,62.00
2019-04-28T11:30:14.145Z,60.80
2019-04-28T11:32:45.127Z,58.30
2019-04-28T11:35:21.854Z,57.00
2019-04-28T11:37:48.116Z,58.30
2019-04-28T11:40:17.812Z,61.50
2019-04-28T11:42:46.237Z,60.90
2019-04-28T11:45:15.190Z,59.40
2019-04-28T11:47:43.979Z,58.90
2019-04-28T11:50:13.905Z,62.30
2019-04-28T11:52:48.159Z,61.80
2019-04-28T11:55:16.647Z,63.10
2019-04-28T11:57:45.410Z,63.70
2019-04-28T12:00:16.028Z,65.60
2019-04-28T12:02:44.692Z,66.90
2019-04-28T12:05:15.561Z,66.30
2019-04-28T12:07:44.247Z,66.20
2019-04-28T12:10:14.696Z,66.50
2019-04-28T12:13:00.356Z,66.70
2019-04-28T12:15:33.127Z,67.70
2019-04-28T12:18:07.355Z,69.10
2019-04-28T12:20:35.791Z,68.70
2019-04-28T12:23:04.388Z,70.20
2019-04-28T12:25:32.931Z,69.90
2019-04-28T12:28:01.728Z,69.80
2019-04-28T12:30:30.227Z,72.10
2019-04-28T12:32:58.643Z,71.80
2019-04-28T12:35:27.076Z,71.70
2019-04-28T12:37:55.507Z,72.30
2019-04-28T12:40:24.884Z,73.00
2019-04-28T12:42:55.501Z,71.40
2019-04-28T12:45:34.893Z,73.50
2019-04-28T12:47:55.332Z,76.10
2019-04-28T12:50:25.375Z,77.60
2019-04-28T12:52:56.091Z,77.70
2019-04-28T12:55:24.867Z,77.90
2019-04-28T12:57:53.656Z,75.40
2019-04-28T13:00:26.951Z,73.10
2019-04-28T13:03:07.204Z,69.20
2019-04-28T13:05:39.843Z,68.20
2019-04-28T13:08:08.329Z,66.90
2019-04-28T13:10:37.174Z,68.70
2019-04-28T13:13:06.515Z,69.00
2019-04-28T13:15:35.932Z,69.40
2019-04-28T13:18:05.739Z,71.20
2019-04-28T13:20:34.182Z,71.80
2019-04-28T13:23:03.520Z,72.00
2019-04-28T13:25:31.963Z,73.60
2019-04-28T13:28:01.309Z,74.20
2019-04-28T13:30:29.741Z,75.00
2019-04-28T13:32:58.177Z,75.10
2019-04-28T13:35:26.679Z,75.50
2019-04-28T13:37:55.135Z,76.20
2019-04-28T13:40:31.207Z,76.70
2019-04-28T13:42:59.642Z,77.10
2019-04-28T13:45:29.893Z,76.00
2019-04-28T13:47:58.341Z,76.30
2019-04-28T13:50:37.681Z,76.30
2019-04-28T13:53:07.476Z,77.00
2019-04-28T13:55:38.216Z,77.90
2019-04-28T13:58:07.052Z,76.40
2019-04-28T14:00:41.199Z,76.60
2019-04-28T14:03:18.519Z,74.30
2019-04-28T14:05:51.483Z,74.30
2019-04-28T14:08:19.915Z,75.00
2019-04-28T14:10:50.463Z,74.50
2019-04-28T14:13:19.246Z,73.90
2019-04-28T14:15:48.497Z,72.00
2019-04-28T14:18:24.068Z,72.10
2019-04-28T14:20:52.904Z,72.50
2019-04-28T14:23:21.395Z,70.30
2019-04-28T14:25:50.165Z,70.70
2019-04-28T14:28:18.860Z,71.30
2019-04-28T14:30:47.298Z,71.20
2019-04-28T14:33:16.675Z,68.50
2019-04-28T14:35:46.321Z,68.00
2019-04-28T14:38:15.148Z,68.40
2019-04-28T14:40:43.617Z,67.50
2019-04-28T14:43:13.999Z,66.80
2019-04-28T14:45:43.503Z,67.70
2019-04-28T14:48:13.193Z,67.40
2019-04-28T14:50:41.638Z,66.90
2019-04-28T14:53:11.123Z,64.80
2019-04-28T14:55:39.557Z,64.50
2019-04-28T14:58:08.459Z,62.90
2019-04-28T15:00:39.043Z,60.80
2019-04-28T15:03:17.606Z,58.70
2019-04-28T15:05:56.494Z,59.50
2019-04-28T15:08:32.683Z,58.00
2019-04-28T15:11:06.599Z,56.20
2019-04-28T15:13:35.214Z,56.70
2019-04-28T15:16:03.705Z,56.40
2019-04-28T15:18:32.196Z,55.80
2019-04-28T15:21:00.672Z,56.70
2019-04-28T15:23:29.163Z,54.20
2019-04-28T15:25:57.611Z,55.80
2019-04-28T15:28:26.296Z,56.00
2019-04-28T15:30:56.673Z,58.30
2019-04-28T15:33:25.366Z,57.30
2019-04-28T15:35:53.788Z,57.50
2019-04-28T15:38:22.492Z,57.80
2019-04-28T15:40:50.916Z,53.40
2019-04-28T15:43:21.254Z,50.90
2019-04-28T15:45:49.683Z,53.40
2019-04-28T15:48:19.300Z,55.30
2019-04-28T15:50:47.992Z,56.70
2019-04-28T15:53:17.611Z,58.80
2019-04-28T15:55:49.604Z,61.10
2019-04-28T15:58:34.732Z,62.40
2019-04-28T16:01:03.736Z,63.50
2019-04-28T16:03:32.174Z,64.30
2019-04-28T16:06:00.610Z,65.50
2019-04-28T16:08:30.309Z,65.70
2019-04-28T16:10:58.999Z,65.50
2019-04-28T16:13:27.697Z,66.70
2019-04-28T16:15:56.135Z,67.00
2019-04-28T16:18:24.867Z,65.90
2019-04-28T16:20:53.303Z,63.50
2019-04-28T16:23:21.728Z,60.70
2019-04-28T16:25:50.344Z,62.20
2019-04-28T16:28:18.770Z,62.20
2019-04-28T16:30:48.150Z,60.40
2019-04-28T16:33:16.751Z,60.80
2019-04-28T16:35:45.195Z,61.20
2019-04-28T16:38:13.614Z,60.50
2019-04-28T16:40:42.391Z,59.80
2019-04-28T16:43:11.160Z,60.90
2019-04-28T16:45:39.855Z,61.60
2019-04-28T16:48:08.635Z,63.10
2019-04-28T16:50:38.262Z,64.10
2019-04-28T16:53:06.703Z,65.00
2019-04-28T16:55:39.874Z,65.50
2019-04-28T16:58:12.645Z,66.20
2019-04-28T17:00:42.766Z,67.60
2019-04-28T17:03:13.359Z,68.40
2019-04-28T17:05:42.052Z,67.40
2019-04-28T17:08:10.474Z,69.00
2019-04-28T17:10:38.899Z,67.30
2019-04-28T17:13:07.607Z,68.50
2019-04-28T17:15:36.039Z,69.40
2019-04-28T17:18:04.581Z,69.00
2019-04-28T17:20:33.119Z,69.60
2019-04-28T17:23:02.511Z,68.00
2019-04-28T17:25:30.948Z,68.70
2019-04-28T17:27:59.655Z,69.40
2019-04-28T17:30:28.668Z,68.50
2019-04-28T17:32:57.539Z,67.80
2019-04-28T17:35:26.044Z,69.40
2019-04-28T17:38:06.050Z,69.70
2019-04-28T17:40:25.191Z,70.30
2019-04-28T17:42:53.936Z,70.50
2019-04-28T17:45:22.372Z,71.60
2019-04-28T17:47:53.439Z,71.30
2019-04-28T17:50:23.634Z,72.20
2019-04-28T17:52:52.092Z,72.90
2019-04-28T17:55:20.526Z,73.70
2019-04-28T17:57:49.250Z,75.10
2019-04-28T18:00:25.511Z,75.40
2019-04-28T18:03:02.287Z,76.10
2019-04-28T18:05:35.093Z,76.20
2019-04-28T18:08:20.396Z,77.00
2019-04-28T18:10:37.691Z,77.90
2019-04-28T18:13:07.435Z,79.10
2019-04-28T18:15:44.443Z,79.60
2019-04-28T18:18:14.546Z,80.60
2019-04-28T18:20:43.276Z,81.60
2019-04-28T18:23:11.976Z,81.40
2019-04-28T18:25:41.688Z,82.90
2019-04-28T18:28:10.148Z,83.10
2019-04-28T18:30:40.215Z,84.10
2019-04-28T18:33:28.379Z,84.80
2019-04-28T18:36:05.363Z,85.40
2019-04-28T18:38:35.595Z,87.00
2019-04-28T18:41:20.779Z,88.50
2019-04-28T18:44:06.075Z,90.00
2019-04-28T18:46:34.880Z,90.60
2019-04-28T18:49:03.388Z,90.80
2019-04-28T18:51:31.832Z,91.30
2019-04-28T18:54:00.241Z,91.80
2019-04-28T18:56:28.714Z,92.30
2019-04-28T18:58:57.485Z,92.60
2019-04-28T19:01:30.243Z,92.80
2019-04-28T19:03:59.091Z,93.10
2019-04-28T19:06:27.526Z,93.20
2019-04-28T19:09:03.712Z,93.40
2019-04-28T19:11:40.839Z,94.30
2019-04-28T19:14:24.120Z,94.80
2019-04-28T19:17:10.042Z,95.20
2019-04-28T19:19:41.132Z,96.20
2019-04-28T19:22:09.547Z,96.40
2019-04-28T19:24:38.324Z,96.10
2019-04-28T19:27:06.757Z,96.00
2019-04-28T19:29:35.187Z,95.90
2019-04-28T19:32:03.616Z,95.90
2019-04-28T19:34:33.012Z,96.20
2019-04-28T19:37:01.599Z,97.40
2019-04-28T19:39:30.012Z,97.80
2019-04-28T19:41:59.755Z,97.50
2019-04-28T19:44:28.201Z,97.50
2019-04-28T19:46:57.036Z,97.80
2019-04-28T19:49:25.828Z,98.10
2019-04-28T19:51:54.253Z,98.30
2019-04-28T19:54:24.340Z,98.30
2019-04-28T19:56:59.846Z,98.30
2019-04-28T19:59:29.939Z,98.50
2019-04-28T20:01:58.354Z,98.50
2019-04-28T20:04:27.722Z,98.90
2019-04-28T20:06:57.407Z,99.20
2019-04-28T20:09:25.832Z,99.20
2019-04-28T20:11:54.263Z,99.30
2019-04-28T20:14:22.684Z,99.40
2019-04-28T20:16:52.368Z,99.70
2019-04-28T20:19:21.035Z,99.60
2019-04-28T20:21:49.475Z,99.90
2019-04-28T20:24:19.575Z,99.90
2019-04-28T20:26:48.148Z,99.90
2019-04-28T20:29:16.569Z,99.90
2019-04-28T20:31:45.366Z,99.90
2019-04-28T20:34:14.128Z,99.90
2019-04-28T20:36:46.955Z,99.90
2019-04-28T20:39:17.015Z,99.90
2019-04-28T20:41:47.407Z,99.90
2019-04-28T20:44:16.144Z,99.90
2019-04-28T20:46:45.857Z,99.90
2019-04-28T20:49:14.547Z,99.90
2019-04-28T20:51:42.986Z,99.90
2019-04-28T20:54:11.420Z,99.90
2019-04-28T20:56:40.817Z,99.90
2019-04-28T20:59:09.272Z,99.90
2019-04-28T21:01:38.004Z,99.90
2019-04-28T21:04:06.431Z,99.90
2019-04-28T21:06:34.911Z,99.90
2019-04-28T21:09:03.336Z,99.90
2019-04-28T21:11:31.759Z,99.90
2019-04-28T21:14:00.527Z,99.90
2019-04-28T21:16:29.871Z,99.90
2019-04-28T21:19:00.575Z,99.90
2019-04-28T21:21:29.256Z,99.90
2019-04-28T21:23:57.703Z,99.90
2019-04-28T21:26:27.356Z,99.90
2019-04-28T21:28:56.049Z,99.90
2019-04-28T21:31:24.744Z,99.90
2019-04-28T21:33:53.163Z,99.90
2019-04-28T21:36:21.587Z,99.90
2019-04-28T21:38:50.707Z,99.90
2019-04-28T21:41:20.066Z,99.90
2019-04-28T21:43:50.135Z,99.90
2019-04-28T21:46:29.069Z,99.90
2019-04-28T21:48:59.129Z,99.90
2019-04-28T21:51:34.726Z,99.90
2019-04-28T21:54:09.143Z,99.90
2019-04-28T21:56:37.835Z,99.90
2019-04-28T21:59:06.281Z,99.90
2019-04-28T22:01:35.932Z,99.90
2019-04-28T22:04:05.811Z,99.90
2019-04-28T22:06:34.232Z,99.90
2019-04-28T22:09:02.926Z,99.90
2019-04-28T22:11:31.356Z,99.90
2019-04-28T22:14:00.106Z,99.90
2019-04-28T22:16:28.539Z,99.90
2019-04-28T22:18:58.656Z,99.90
2019-04-28T22:21:27.103Z,99.90
2019-04-28T22:24:09.480Z,99.90
2019-04-28T22:26:45.247Z,99.90
2019-04-28T22:29:14.867Z,99.90
2019-04-28T22:31:44.337Z,99.90
2019-04-28T22:34:16.007Z,99.90
2019-04-28T22:36:46.619Z,99.90
2019-04-28T22:39:15.555Z,99.90
2019-04-28T22:41:44.564Z,99.90
2019-04-28T22:44:13.439Z,99.90
2019-04-28T22:46:41.909Z,99.90
2019-04-28T22:49:10.720Z,99.90
2019-04-28T22:51:40.333Z,99.90
2019-04-28T22:54:14.431Z,99.90
2019-04-28T22:56:44.732Z,99.90
2019-04-28T22:59:23.358Z,99.90
2019-04-28T23:02:00.276Z,99.90
2019-04-28T23:04:30.354Z,99.90
2019-04-28T23:06:58.772Z,99.90
2019-04-28T23:09:27.203Z,99.90
2019-04-28T23:11:56.620Z,99.90
2019-04-28T23:14:25.115Z,99.90
2019-04-28T23:16:53.835Z,99.90
2019-04-28T23:19:23.927Z,99.90
2019-04-28T23:21:56.703Z,99.90
2019-04-28T23:24:25.384Z,99.90
2019-04-28T23:26:53.830Z,99.90
2019-04-28T23:29:22.243Z,99.90
2019-04-28T23:31:50.672Z,99.90
2019-04-28T23:34:21.072Z,99.90
2019-04-28T23:36:49.491Z,99.90
2019-04-28T23:39:18.835Z,99.90
2019-04-28T23:41:49.231Z,99.90
2019-04-28T23:44:18.849Z,99.90
2019-04-28T23:46:57.875Z,99.90
2019-04-28T23:49:28.303Z,99.90
2019-04-28T23:52:10.702Z,99.90
2019-04-28T23:54:46.754Z,99.90
2019-04-28T23:57:15.195Z,99.90
2019-04-28T23:59:43.619Z,99.90
